Главная страница
METAR-TAF:

METAR-TAF

Аэропорты :

Бурленге, Швеция

широта: 60-26N, долгота: 015-31E, высота над уровнем моря: 145 м

Текущие метеонаблюдения

Эта сводка был подготовлена 48 минут назад, в 14:20 UTC
Ветер 8 Узел от юго-юго-восточный, изменяющийся между восточный и южный
Температура 21°C
Влажность 43%
Давление 1010 hPa
Видимость 10 км и более

METAR: ESSD 221420Z AUTO 15008KT 100V190 9999 FEW064/// SCT150/// BKN170/// 21/08 Q1010

Время: 17:08 (15:08 UTC)


TAF: отсутствует

Метеонаблюдения и прогнозы для более 4000 аэропортов (сводки METAR и TAF).

Имеющиеся станции представлены на карте желтыми и красными точками.

Чтобы увидеть название станции, наведите на нее мышь.

Затем щелкните, чтобы увидеть метеонаблюдения и метеопрогнозы.

Управление картой: чтобы увеличить масштаб, щелкните зеленые кнопки с черным крестиком; чтобы уменьшить масштаб, щелкните зеленую кнопку с тире; для просмотра соседних карт щелкайте зеленые стрелки.


METAR-TAF: